Time;durP1;ratioP1;P1;durP2;ratioP2;P2;SDS_P1;SDS_P2;PMS_P1;PMS_P2;Temp;Humidity;BMP_temperature;BMP_pressure;BME280_temperature;BME280_humidity;BME280_pressure;Samples;Min_cycle;Max_cycle;Signal;HPM_P1;HPM_P2
2021/12/09 00:00:29;;;;;;;13.88;7.80;;;2.30;99.90;;;;;;4966682;28;20048;-85
2021/12/09 00:02:56;;;;;;;16.95;7.80;;;2.30;99.90;;;;;;5023304;28;20091;-85
2021/12/09 00:05:22;;;;;;;16.45;7.60;;;2.20;99.90;;;;;;5007519;28;20511;-85
2021/12/09 00:07:51;;;;;;;13.82;7.68;;;2.20;99.90;;;;;;5004902;28;20055;-85
2021/12/09 00:10:18;;;;;;;14.40;7.50;;;2.20;99.90;;;;;;5008261;28;20079;-84
2021/12/09 00:12:47;;;;;;;14.90;7.68;;;2.20;99.90;;;;;;5006288;28;20055;-85
2021/12/09 00:15:13;;;;;;;14.05;7.78;;;2.10;99.90;;;;;;5005558;28;20054;-85
2021/12/09 00:17:38;;;;;;;15.50;8.35;;;2.10;99.90;;;;;;5006150;28;21038;-84
2021/12/09 00:20:09;;;;;;;18.05;7.95;;;2.10;99.90;;;;;;5005246;28;20075;-85
2021/12/09 00:22:35;;;;;;;14.98;7.93;;;2.10;99.90;;;;;;5005579;28;20058;-85
2021/12/09 00:25:01;;;;;;;15.13;7.78;;;2.10;99.90;;;;;;4985443;28;20586;-85
2021/12/09 00:27:27;;;;;;;17.55;8.00;;;2.00;99.90;;;;;;5004982;28;20359;-85
2021/12/09 00:29:53;;;;;;;17.85;8.07;;;2.00;99.90;;;;;;5005619;28;20074;-84
2021/12/09 00:32:20;;;;;;;16.70;8.20;;;2.00;99.90;;;;;;4999835;28;20963;-85
2021/12/09 00:34:48;;;;;;;14.82;8.43;;;1.90;99.90;;;;;;5005481;28;20058;-84
2021/12/09 00:39:51;;;;;;;18.10;8.68;;;1.90;99.90;;;;;;5005713;28;20649;-84
2021/12/09 00:42:22;;;;;;;14.75;8.30;;;1.90;99.90;;;;;;5003683;28;20945;-84
2021/12/09 00:44:50;;;;;;;15.27;8.23;;;1.80;99.90;;;;;;5002334;28;20793;-85
2021/12/09 00:47:16;;;;;;;15.38;7.90;;;1.80;99.90;;;;;;5007695;28;20631;-84
2021/12/09 00:49:42;;;;;;;17.17;8.23;;;1.80;99.90;;;;;;5001875;28;20048;-84
2021/12/09 00:52:08;;;;;;;15.88;8.75;;;1.70;99.90;;;;;;4994437;28;20051;-85
2021/12/09 00:54:35;;;;;;;16.70;9.15;;;1.70;99.90;;;;;;5003320;28;20043;-84
2021/12/09 00:57:01;;;;;;;17.83;9.50;;;1.70;99.90;;;;;;5002358;28;20075;-85
2021/12/09 00:59:27;;;;;;;17.23;9.40;;;1.70;99.90;;;;;;4984569;28;20111;-85
2021/12/09 01:01:53;;;;;;;20.40;10.35;;;1.70;99.90;;;;;;5001121;28;20047;-84
2021/12/09 01:04:19;;;;;;;20.70;9.85;;;1.80;99.90;;;;;;5001685;28;20684;-84
2021/12/09 01:06:45;;;;;;;19.60;9.85;;;1.80;99.90;;;;;;4999894;28;20074;-84
2021/12/09 01:09:11;;;;;;;17.95;9.88;;;1.80;99.90;;;;;;4999115;28;21275;-85
2021/12/09 01:11:37;;;;;;;16.25;9.30;;;1.70;99.90;;;;;;5000274;28;20063;-84
2021/12/09 01:14:02;;;;;;;17.85;9.43;;;1.70;99.90;;;;;;5005418;28;20248;-84
2021/12/09 01:16:28;;;;;;;19.73;9.50;;;1.60;99.90;;;;;;5000828;28;20510;-84
2021/12/09 01:18:55;;;;;;;17.05;9.75;;;1.60;99.90;;;;;;4996821;28;20829;-84
2021/12/09 01:21:21;;;;;;;16.40;9.23;;;1.60;99.90;;;;;;5002306;28;20044;-84
2021/12/09 01:23:47;;;;;;;19.60;10.45;;;1.60;99.90;;;;;;4999424;28;20409;-85
2021/12/09 01:26:13;;;;;;;20.80;10.88;;;1.70;99.90;;;;;;4999087;28;20795;-85
2021/12/09 01:28:46;;;;;;;19.58;10.23;;;1.70;99.90;;;;;;4999085;28;20052;-84
2021/12/09 01:31:20;;;;;;;16.10;10.30;;;1.70;99.90;;;;;;5000373;28;20054;-84
2021/12/09 01:33:47;;;;;;;19.70;10.10;;;1.60;99.90;;;;;;5005294;28;20147;-84
2021/12/09 01:36:13;;;;;;;19.85;10.82;;;1.60;99.90;;;;;;4989846;28;20062;-85
2021/12/09 01:38:39;;;;;;;18.98;10.77;;;1.60;99.90;;;;;;4996627;28;20052;-83
2021/12/09 01:41:04;;;;;;;19.20;10.68;;;1.50;99.90;;;;;;5000181;28;20048;-84
2021/12/09 01:43:31;;;;;;;18.48;10.05;;;1.50;99.90;;;;;;4997724;28;20044;-84
2021/12/09 01:46:13;;;;;;;16.35;10.07;;;1.30;99.90;;;;;;5002874;28;20273;-85
2021/12/09 01:48:41;;;;;;;19.10;11.15;;;1.30;99.90;;;;;;5003165;28;20791;-84
2021/12/09 01:51:07;;;;;;;16.50;10.32;;;1.20;99.90;;;;;;5002180;28;20056;-85
2021/12/09 01:53:33;;;;;;;17.73;10.82;;;1.10;99.90;;;;;;4998529;28;20054;-84
2021/12/09 01:56:03;;;;;;;22.38;11.07;;;1.30;99.90;;;;;;5002391;28;20047;-84
2021/12/09 01:58:29;;;;;;;21.52;12.02;;;1.30;99.90;;;;;;5001751;28;20864;-84
2021/12/09 02:00:55;;;;;;;20.67;11.27;;;1.30;99.90;;;;;;4998583;28;20071;-84
2021/12/09 02:03:21;;;;;;;22.30;11.27;;;1.30;99.90;;;;;;4978869;28;20142;-84
2021/12/09 02:05:47;;;;;;;19.77;10.95;;;1.30;99.90;;;;;;4999645;28;20533;-85
2021/12/09 02:08:15;;;;;;;16.10;10.80;;;1.30;99.90;;;;;;4995929;28;20171;-84
2021/12/09 02:10:43;;;;;;;21.55;11.13;;;1.30;99.90;;;;;;4996684;28;20849;-84
2021/12/09 02:13:09;;;;;;;17.75;10.20;;;1.40;99.90;;;;;;4997315;28;20373;-85
2021/12/09 02:15:36;;;;;;;18.25;9.65;;;1.20;99.90;;;;;;4999187;28;20638;-85
2021/12/09 02:18:07;;;;;;;16.85;10.15;;;1.30;99.90;;;;;;5002784;28;20135;-85
2021/12/09 02:20:35;;;;;;;16.27;10.18;;;1.30;99.90;;;;;;5002126;28;20586;-84
2021/12/09 02:23:07;;;;;;;17.10;9.80;;;1.20;99.90;;;;;;4997671;28;20131;-84
2021/12/09 02:25:33;;;;;;;15.85;9.55;;;1.20;99.90;;;;;;4996835;28;20132;-84
2021/12/09 02:27:59;;;;;;;17.08;9.98;;;1.10;99.90;;;;;;5002781;28;20520;-85
2021/12/09 02:30:25;;;;;;;16.05;10.57;;;1.00;99.90;;;;;;4980316;28;20048;-85
2021/12/09 02:32:51;;;;;;;18.90;11.05;;;0.90;99.90;;;;;;4996672;28;20048;-85
2021/12/09 02:35:17;;;;;;;18.58;10.43;;;1.10;99.90;;;;;;5000761;28;20048;-84
2021/12/09 02:37:44;;;;;;;20.35;11.48;;;1.00;99.90;;;;;;5001686;28;20484;-85
2021/12/09 02:40:12;;;;;;;18.25;11.15;;;1.00;99.90;;;;;;4999052;28;20235;-84
2021/12/09 02:42:40;;;;;;;22.90;12.63;;;1.10;99.90;;;;;;5001555;28;20589;-85
2021/12/09 02:45:09;;;;;;;22.05;13.82;;;1.10;99.90;;;;;;4999938;28;20044;-85
2021/12/09 02:47:35;;;;;;;22.15;12.43;;;1.20;99.90;;;;;;5005238;28;20044;-84
2021/12/09 02:50:03;;;;;;;22.58;13.82;;;1.30;99.90;;;;;;5011023;28;20055;-85
2021/12/09 02:52:29;;;;;;;22.45;12.90;;;1.20;99.90;;;;;;4995527;28;20052;-85
2021/12/09 02:54:57;;;;;;;21.38;12.07;;;1.20;99.90;;;;;;5000411;28;20087;-84
2021/12/09 02:57:23;;;;;;;22.27;12.05;;;1.10;99.90;;;;;;4980227;28;20454;-85
2021/12/09 02:59:49;;;;;;;17.73;11.38;;;1.10;99.90;;;;;;4999032;28;20565;-85
2021/12/09 03:02:15;;;;;;;19.10;11.05;;;1.20;99.90;;;;;;4999889;28;20500;-85
2021/12/09 03:04:51;;;;;;;15.02;10.02;;;1.00;99.90;;;;;;4999432;28;20421;-85
2021/12/09 03:07:34;;;;;;;17.77;10.15;;;0.80;99.90;;;;;;4998267;28;20358;-85
2021/12/09 03:10:20;;;;;;;15.82;9.52;;;0.70;99.90;;;;;;4986420;28;20534;-84
2021/12/09 03:12:48;;;;;;;17.75;10.20;;;0.90;99.90;;;;;;5020827;28;20051;-85
2021/12/09 03:15:16;;;;;;;19.75;10.30;;;0.70;99.90;;;;;;5005941;28;20106;-84
2021/12/09 03:17:43;;;;;;;15.68;10.48;;;0.60;99.90;;;;;;5018349;28;20592;-84
2021/12/09 03:20:11;;;;;;;16.98;10.35;;;0.80;99.90;;;;;;4996329;28;20446;-84
2021/12/09 03:22:38;;;;;;;15.20;10.10;;;0.70;99.90;;;;;;4976782;28;20496;-84
2021/12/09 03:25:06;;;;;;;15.32;11.27;;;0.70;99.90;;;;;;5002179;28;20047;-85
2021/12/09 03:27:32;;;;;;;19.27;10.55;;;0.70;99.90;;;;;;4983177;28;20082;-84
2021/12/09 03:29:57;;;;;;;16.63;11.07;;;0.60;99.90;;;;;;5005803;28;20177;-84
2021/12/09 03:32:23;;;;;;;16.02;10.23;;;0.60;99.90;;;;;;5001672;28;20044;-85
2021/12/09 03:34:51;;;;;;;20.05;11.43;;;0.60;99.90;;;;;;4999810;28;20473;-85
2021/12/09 03:37:20;;;;;;;21.13;11.73;;;0.60;99.90;;;;;;5005109;28;20137;-85
2021/12/09 03:39:48;;;;;;;21.85;12.88;;;0.70;99.90;;;;;;5003974;28;20613;-84
2021/12/09 03:42:16;;;;;;;22.27;12.55;;;0.70;99.90;;;;;;4985721;28;20559;-85
2021/12/09 03:44:43;;;;;;;20.35;12.13;;;0.60;99.90;;;;;;5007279;28;20431;-84
2021/12/09 03:47:11;;;;;;;23.88;12.60;;;0.60;99.90;;;;;;4981150;28;20047;-85
2021/12/09 03:49:38;;;;;;;22.05;11.85;;;0.60;99.90;;;;;;5000981;28;20330;-85
2021/12/09 03:52:04;;;;;;;21.00;12.35;;;0.70;99.90;;;;;;4997105;28;20485;-85
2021/12/09 03:54:30;;;;;;;23.80;13.48;;;0.60;99.90;;;;;;5001266;28;20159;-84
2021/12/09 03:56:57;;;;;;;25.00;14.38;;;0.70;99.90;;;;;;5001986;28;20425;-85
2021/12/09 03:59:23;;;;;;;21.25;13.07;;;0.60;99.90;;;;;;4999972;28;20044;-84
2021/12/09 04:01:55;;;;;;;20.55;12.80;;;0.70;99.90;;;;;;4997391;28;20062;-85
2021/12/09 04:04:21;;;;;;;17.70;12.52;;;0.70;99.90;;;;;;5000409;28;20051;-85
2021/12/09 04:06:48;;;;;;;22.67;13.10;;;0.60;99.90;;;;;;5001739;28;20060;-84
2021/12/09 04:09:16;;;;;;;24.92;13.75;;;0.60;99.90;;;;;;4980864;28;20507;-84
2021/12/09 04:11:42;;;;;;;20.33;13.07;;;0.50;99.90;;;;;;4999732;28;20047;-84
2021/12/09 04:14:08;;;;;;;20.95;12.68;;;0.50;99.90;;;;;;4997704;28;20872;-85
2021/12/09 04:16:35;;;;;;;23.25;12.68;;;0.50;99.90;;;;;;5000011;28;20063;-84
2021/12/09 04:19:03;;;;;;;20.60;12.80;;;0.60;99.90;;;;;;4983328;28;20052;-85
2021/12/09 04:21:28;;;;;;;20.25;13.50;;;0.50;99.90;;;;;;4977003;28;20095;-84
2021/12/09 04:23:54;;;;;;;21.08;13.05;;;0.50;99.90;;;;;;5000699;28;20047;-84
2021/12/09 04:26:20;;;;;;;23.00;12.70;;;0.50;99.90;;;;;;4981806;28;20080;-85
2021/12/09 04:28:46;;;;;;;20.35;13.05;;;0.40;99.90;;;;;;5003709;28;20405;-84
2021/12/09 04:31:14;;;;;;;22.65;13.13;;;0.50;99.90;;;;;;4981878;28;20078;-84
2021/12/09 04:33:42;;;;;;;18.92;12.85;;;0.40;99.90;;;;;;4998762;28;20535;-84
2021/12/09 04:36:08;;;;;;;22.02;13.30;;;0.40;99.90;;;;;;5001335;28;20051;-85
2021/12/09 04:38:35;;;;;;;25.55;13.27;;;0.60;99.90;;;;;;5002986;28;20086;-85
2021/12/09 04:41:00;;;;;;;22.40;12.65;;;0.50;99.90;;;;;;5000825;28;20048;-84
2021/12/09 04:43:26;;;;;;;21.17;12.50;;;0.60;99.90;;;;;;5000623;28;20923;-84
2021/12/09 04:45:52;;;;;;;21.27;12.70;;;0.50;99.90;;;;;;5000385;28;20043;-85
2021/12/09 04:48:18;;;;;;;23.98;13.88;;;0.60;99.90;;;;;;4997571;28;20211;-85
2021/12/09 04:50:45;;;;;;;24.95;13.68;;;0.60;99.90;;;;;;4994791;28;20523;-85
2021/12/09 04:53:11;;;;;;;21.70;13.38;;;0.50;99.90;;;;;;5001598;28;20051;-84
2021/12/09 04:55:38;;;;;;;24.48;12.98;;;0.60;99.90;;;;;;4979792;28;20071;-84
2021/12/09 04:58:07;;;;;;;24.13;13.68;;;0.60;99.90;;;;;;5001760;28;20090;-84
2021/12/09 05:00:38;;;;;;;22.33;14.18;;;0.50;99.90;;;;;;5005067;28;20437;-84
2021/12/09 05:03:11;;;;;;;24.25;14.48;;;0.60;99.90;;;;;;5000481;28;20409;-84
2021/12/09 05:05:45;;;;;;;26.65;14.95;;;0.60;99.90;;;;;;4998612;28;20578;-85
2021/12/09 05:08:14;;;;;;;27.73;14.80;;;0.70;99.90;;;;;;5018728;28;20064;-84
2021/12/09 05:13:23;;;;;;;25.50;15.25;;;0.60;99.90;;;;;;5002077;28;20059;-84
2021/12/09 05:15:50;;;;;;;25.73;15.32;;;0.70;99.90;;;;;;5022244;28;20424;-84
2021/12/09 05:18:17;;;;;;;23.20;15.45;;;0.70;99.90;;;;;;5006053;28;20047;-84
2021/12/09 05:20:44;;;;;;;26.58;15.30;;;0.70;99.90;;;;;;5000839;28;20119;-84
2021/12/09 05:23:10;;;;;;;24.92;16.25;;;0.70;99.90;;;;;;5019760;28;20064;-84
2021/12/09 05:25:36;;;;;;;24.30;16.33;;;0.70;99.90;;;;;;5004592;28;20083;-84
2021/12/09 05:28:03;;;;;;;25.55;14.52;;;0.60;99.90;;;;;;5022884;28;20043;-84
2021/12/09 05:30:37;;;;;;;26.65;14.55;;;0.70;99.90;;;;;;5000354;28;20069;-83
2021/12/09 05:33:04;;;;;;;23.85;14.63;;;0.60;99.90;;;;;;4998628;28;20548;-85
2021/12/09 05:35:30;;;;;;;24.45;14.60;;;0.60;99.90;;;;;;4997194;28;20047;-85
2021/12/09 05:37:55;;;;;;;25.67;14.88;;;0.60;99.90;;;;;;4996489;28;20043;-85
2021/12/09 05:40:21;;;;;;;27.48;14.70;;;0.70;99.90;;;;;;4973774;28;20396;-84
2021/12/09 05:42:48;;;;;;;20.17;13.35;;;0.60;99.90;;;;;;4999490;28;20049;-84
2021/12/09 05:45:14;;;;;;;23.42;13.95;;;0.50;99.90;;;;;;4998464;28;20483;-84
2021/12/09 05:47:40;;;;;;;23.55;13.77;;;0.50;99.90;;;;;;4980140;28;20838;-84
2021/12/09 05:50:08;;;;;;;22.10;14.48;;;0.50;99.90;;;;;;4998094;28;20066;-84
2021/12/09 05:52:34;;;;;;;22.88;13.95;;;0.40;99.90;;;;;;4996988;28;20175;-85
2021/12/09 05:55:00;;;;;;;23.10;13.60;;;0.40;99.90;;;;;;5019641;28;20384;-84
2021/12/09 05:57:26;;;;;;;20.67;14.05;;;0.30;99.90;;;;;;4998016;28;20165;-84
2021/12/09 05:59:54;;;;;;;24.48;13.73;;;0.30;99.90;;;;;;5000317;28;20056;-84
2021/12/09 06:02:23;;;;;;;21.80;14.18;;;0.30;99.90;;;;;;5014454;28;20389;-83
2021/12/09 06:04:49;;;;;;;22.38;13.85;;;0.30;99.90;;;;;;4999630;28;20051;-84
2021/12/09 06:07:15;;;;;;;25.33;14.88;;;0.30;99.90;;;;;;4985214;28;20783;-84
2021/12/09 06:09:41;;;;;;;24.65;15.07;;;0.30;99.90;;;;;;4996099;28;20190;-84
2021/12/09 06:12:08;;;;;;;23.77;15.40;;;0.40;99.90;;;;;;4997166;28;20543;-84
2021/12/09 06:14:34;;;;;;;27.02;15.93;;;0.30;99.90;;;;;;5002727;28;20848;-84
2021/12/09 06:17:00;;;;;;;29.00;15.98;;;0.30;99.90;;;;;;5000076;28;20130;-84
2021/12/09 06:19:26;;;;;;;22.88;15.35;;;0.50;99.90;;;;;;4998257;28;20521;-84
2021/12/09 06:21:52;;;;;;;30.40;16.73;;;0.40;99.90;;;;;;4990228;28;20052;-84
2021/12/09 06:24:18;;;;;;;32.15;16.80;;;0.40;99.90;;;;;;4999612;28;20044;-84
2021/12/09 06:26:45;;;;;;;30.08;16.67;;;0.40;99.90;;;;;;5004195;28;20856;-84
2021/12/09 06:29:11;;;;;;;26.70;16.10;;;0.40;99.90;;;;;;4999127;28;20052;-84
2021/12/09 06:31:37;;;;;;;28.17;16.00;;;0.40;99.90;;;;;;5001638;28;20052;-84
2021/12/09 06:34:04;;;;;;;23.85;15.52;;;0.40;99.90;;;;;;4997528;28;20040;-84
2021/12/09 06:36:29;;;;;;;26.10;15.27;;;0.40;99.90;;;;;;4999777;28;20494;-84
2021/12/09 06:38:56;;;;;;;30.63;15.50;;;0.40;99.90;;;;;;4998022;28;20079;-84
2021/12/09 06:41:22;;;;;;;25.63;15.38;;;0.30;99.90;;;;;;4978503;28;21141;-84
2021/12/09 06:43:48;;;;;;;26.35;15.25;;;0.30;99.90;;;;;;4975652;28;20044;-84
2021/12/09 06:46:14;;;;;;;26.20;15.05;;;0.40;99.90;;;;;;4993775;28;20849;-84
2021/12/09 06:48:41;;;;;;;28.73;14.43;;;0.30;99.90;;;;;;5001534;28;20786;-84
2021/12/09 06:51:07;;;;;;;25.45;14.43;;;0.30;99.90;;;;;;4996727;28;20036;-84
2021/12/09 06:53:34;;;;;;;29.92;16.63;;;0.20;99.90;;;;;;4998827;28;20052;-84
2021/12/09 06:56:01;;;;;;;25.05;14.77;;;0.20;99.90;;;;;;4997706;28;20040;-84
2021/12/09 06:58:27;;;;;;;27.45;15.27;;;0.30;99.90;;;;;;5000705;28;20063;-84
2021/12/09 07:00:54;;;;;;;26.27;16.15;;;0.20;99.90;;;;;;4998927;28;20113;-84
2021/12/09 07:03:21;;;;;;;28.90;16.75;;;0.20;99.90;;;;;;5000020;28;20054;-84
2021/12/09 07:05:51;;;;;;;36.33;16.73;;;0.30;99.90;;;;;;4998367;28;20586;-84
2021/12/09 07:08:18;;;;;;;22.25;15.50;;;0.20;99.90;;;;;;5005695;28;20060;-84
2021/12/09 07:10:44;;;;;;;28.15;16.30;;;0.20;99.90;;;;;;4987469;28;20131;-84
2021/12/09 07:13:10;;;;;;;26.55;15.48;;;0.30;99.90;;;;;;4999473;28;20052;-84
2021/12/09 07:15:37;;;;;;;28.45;14.50;;;0.30;99.90;;;;;;4988558;28;20981;-84
2021/12/09 07:18:03;;;;;;;26.48;15.30;;;0.20;99.90;;;;;;5001420;28;20048;-82
2021/12/09 07:20:30;;;;;;;30.42;16.30;;;0.30;99.90;;;;;;5001605;28;20047;-82
2021/12/09 07:22:56;;;;;;;32.85;16.05;;;0.30;99.90;;;;;;5000216;28;20389;-84
2021/12/09 07:25:25;;;;;;;29.83;16.05;;;0.20;99.90;;;;;;5002772;28;20048;-84
2021/12/09 07:27:52;;;;;;;34.08;16.33;;;0.20;99.90;;;;;;5001708;28;20424;-84
2021/12/09 07:30:19;;;;;;;34.67;16.92;;;0.30;99.90;;;;;;4999403;28;20143;-84
2021/12/09 07:32:45;;;;;;;32.90;16.48;;;0.30;99.90;;;;;;5000644;28;20577;-85
2021/12/09 07:35:12;;;;;;;35.42;16.23;;;0.20;99.90;;;;;;4999153;28;20119;-84
2021/12/09 07:37:39;;;;;;;32.97;15.98;;;0.30;99.90;;;;;;5000776;28;20118;-84
2021/12/09 07:40:06;;;;;;;29.88;15.02;;;0.30;99.90;;;;;;4975380;28;20238;-85
2021/12/09 07:42:32;;;;;;;26.83;14.48;;;0.20;99.90;;;;;;4999460;28;20044;-84
2021/12/09 07:44:58;;;;;;;30.80;15.05;;;0.30;99.90;;;;;;4976331;28;20198;-85
2021/12/09 07:47:24;;;;;;;34.65;15.85;;;0.30;99.90;;;;;;5000209;28;20036;-85
2021/12/09 07:49:50;;;;;;;42.58;15.27;;;0.40;99.90;;;;;;4985198;28;20395;-85
2021/12/09 07:52:18;;;;;;;35.13;16.10;;;0.30;99.90;;;;;;4999622;28;20444;-84
2021/12/09 07:54:44;;;;;;;35.95;16.02;;;0.30;99.90;;;;;;5001487;28;20051;-84
2021/12/09 07:57:10;;;;;;;46.22;16.20;;;0.40;99.90;;;;;;4998205;28;20994;-83
2021/12/09 07:59:36;;;;;;;32.83;16.77;;;0.30;99.90;;;;;;4998335;28;20044;-83
2021/12/09 08:02:02;;;;;;;29.52;16.27;;;0.40;99.90;;;;;;4996498;28;20433;-84
2021/12/09 08:04:28;;;;;;;37.15;16.33;;;0.40;99.90;;;;;;5004636;28;20508;-85
2021/12/09 08:06:54;;;;;;;34.17;16.70;;;0.50;99.90;;;;;;4996675;28;20125;-84
2021/12/09 08:09:20;;;;;;;35.85;15.90;;;0.50;99.90;;;;;;4986023;28;20157;-84
2021/12/09 08:11:46;;;;;;;30.60;16.88;;;0.50;99.90;;;;;;5004774;28;20121;-84
2021/12/09 08:14:15;;;;;;;36.67;17.58;;;0.70;99.90;;;;;;5003124;28;20060;-84
2021/12/09 08:16:42;;;;;;;30.35;16.52;;;0.70;99.90;;;;;;4982921;28;20846;-83
2021/12/09 08:19:13;;;;;;;31.85;16.48;;;0.80;99.90;;;;;;5008412;28;20051;-83
2021/12/09 08:21:40;;;;;;;30.60;15.80;;;0.80;99.90;;;;;;5019745;28;20076;-83
2021/12/09 08:24:07;;;;;;;28.23;15.45;;;0.80;99.90;;;;;;5005971;28;20048;-83
2021/12/09 08:26:34;;;;;;;27.33;15.00;;;0.90;99.90;;;;;;5002518;28;20074;-83
2021/12/09 08:29:01;;;;;;;27.48;14.68;;;1.00;99.90;;;;;;4983706;28;20074;-84
2021/12/09 08:31:29;;;;;;;34.47;15.63;;;1.10;99.90;;;;;;5003465;28;20112;-84
2021/12/09 08:33:56;;;;;;;29.30;15.32;;;1.20;99.90;;;;;;4979488;28;20861;-85
2021/12/09 08:36:22;;;;;;;31.08;15.85;;;1.30;99.90;;;;;;5003771;28;20056;-84
2021/12/09 08:38:48;;;;;;;38.38;16.38;;;1.40;99.90;;;;;;5001255;28;20122;-84
2021/12/09 08:41:15;;;;;;;30.42;15.65;;;1.50;99.90;;;;;;4987152;28;20054;-84
2021/12/09 08:43:41;;;;;;;25.75;14.75;;;1.70;99.90;;;;;;5003812;28;20716;-85
2021/12/09 08:46:07;;;;;;;28.13;15.00;;;1.70;99.90;;;;;;5000513;28;20540;-84
2021/12/09 08:48:33;;;;;;;30.95;14.63;;;1.80;99.90;;;;;;5000220;28;20104;-85
2021/12/09 08:50:59;;;;;;;24.90;13.73;;;2.00;99.90;;;;;;5001958;28;20435;-82
2021/12/09 08:53:25;;;;;;;27.85;13.02;;;2.10;99.90;;;;;;5001228;28;20044;-83
2021/12/09 08:55:53;;;;;;;25.10;12.50;;;2.10;99.90;;;;;;5003415;28;20131;-84
2021/12/09 08:58:20;;;;;;;27.92;12.00;;;2.20;99.90;;;;;;4991033;28;20080;-84
2021/12/09 09:00:46;;;;;;;21.05;10.85;;;2.30;99.90;;;;;;4998730;28;20312;-82
2021/12/09 09:03:13;;;;;;;19.42;10.70;;;2.30;99.90;;;;;;4999563;28;20749;-85
2021/12/09 09:05:40;;;;;;;20.23;9.40;;;2.40;99.90;;;;;;4976952;28;20434;-85
2021/12/09 09:08:06;;;;;;;17.75;9.35;;;2.40;99.90;;;;;;5000662;28;20064;-86
2021/12/09 09:10:34;;;;;;;21.38;9.65;;;2.50;99.90;;;;;;4997240;28;20170;-85
2021/12/09 09:13:01;;;;;;;21.20;9.48;;;2.60;99.90;;;;;;5002247;28;20553;-86
2021/12/09 09:15:28;;;;;;;16.40;9.07;;;2.60;99.90;;;;;;5000022;28;20443;-84
2021/12/09 09:17:55;;;;;;;15.55;8.30;;;2.70;99.90;;;;;;5002779;28;20898;-84
2021/12/09 09:20:24;;;;;;;17.83;8.30;;;2.70;99.90;;;;;;5000714;28;20400;-85
2021/12/09 09:22:51;;;;;;;15.60;8.13;;;2.70;99.90;;;;;;4983695;28;20083;-84
2021/12/09 09:25:22;;;;;;;18.67;8.25;;;2.80;99.90;;;;;;5003211;28;20044;-84
2021/12/09 09:27:49;;;;;;;16.45;8.35;;;2.80;99.90;;;;;;5001960;28;20055;-86
2021/12/09 09:30:18;;;;;;;18.70;8.10;;;2.90;99.90;;;;;;4989275;28;20055;-82
2021/12/09 09:32:46;;;;;;;21.55;9.05;;;3.00;99.90;;;;;;5001097;28;20056;-84
2021/12/09 09:35:12;;;;;;;17.30;8.73;;;3.00;99.90;;;;;;5006720;28;20068;-85
2021/12/09 09:37:39;;;;;;;16.52;8.95;;;3.00;99.90;;;;;;4979025;28;20153;-84
2021/12/09 09:40:12;;;;;;;18.52;8.73;;;3.00;99.90;;;;;;4960464;28;20048;-82
2021/12/09 09:45:06;;;;;;;13.73;7.95;;;3.10;99.90;;;;;;5000787;28;20047;-84
2021/12/09 09:47:32;;;;;;;15.52;8.50;;;3.10;99.90;;;;;;5002120;28;20043;-82
2021/12/09 09:49:58;;;;;;;17.88;8.10;;;3.20;99.90;;;;;;4968159;28;20545;-82
2021/12/09 09:52:25;;;;;;;16.85;8.32;;;3.20;99.90;;;;;;4999938;28;20224;-84
2021/12/09 09:54:54;;;;;;;18.00;8.07;;;3.30;99.90;;;;;;4998922;28;20236;-85
2021/12/09 09:57:20;;;;;;;13.95;8.18;;;3.30;99.90;;;;;;4999291;28;20213;-87
2021/12/09 09:59:49;;;;;;;17.38;8.50;;;3.30;99.90;;;;;;4977338;28;20043;-85
2021/12/09 10:02:16;;;;;;;20.58;8.43;;;3.40;99.90;;;;;;4997126;28;20805;-85
2021/12/09 10:04:48;;;;;;;16.70;8.55;;;3.40;99.90;;;;;;4977721;28;20504;-84
2021/12/09 10:07:18;;;;;;;18.48;8.15;;;3.40;99.90;;;;;;4997735;28;20301;-83
2021/12/09 10:09:45;;;;;;;14.57;7.85;;;3.40;99.90;;;;;;4995967;28;20056;-83
2021/12/09 10:12:14;;;;;;;16.38;7.38;;;3.50;99.90;;;;;;5001157;28;20044;-85
2021/12/09 10:14:45;;;;;;;13.88;7.40;;;3.50;99.90;;;;;;4985346;28;20618;-84
2021/12/09 10:17:45;;;;;;;17.83;8.02;;;3.50;99.90;;;;;;4990015;28;20048;-84
2021/12/09 10:20:11;;;;;;;15.70;7.45;;;3.50;99.90;;;;;;4998403;28;20039;-83
2021/12/09 10:22:38;;;;;;;17.10;8.77;;;3.60;99.90;;;;;;4997650;28;20047;-84
2021/12/09 10:25:18;;;;;;;17.10;7.63;;;3.50;99.90;;;;;;5001143;28;20517;-83
2021/12/09 10:27:45;;;;;;;16.20;7.88;;;3.60;99.90;;;;;;4996670;28;20952;-84
2021/12/09 10:30:16;;;;;;;15.65;7.95;;;3.60;99.90;;;;;;5001545;28;20506;-83
2021/12/09 10:32:43;;;;;;;15.27;7.65;;;3.60;99.90;;;;;;4982592;28;21182;-84
2021/12/09 10:35:20;;;;;;;16.90;7.93;;;3.60;99.90;;;;;;5004232;28;20618;-84
2021/12/09 10:37:50;;;;;;;18.05;8.50;;;3.70;99.90;;;;;;4996047;28;20501;-84
2021/12/09 10:40:19;;;;;;;17.23;8.10;;;3.90;99.90;;;;;;4979468;28;20047;-85
2021/12/09 10:42:48;;;;;;;15.35;7.57;;;3.80;99.90;;;;;;5001248;28;20593;-82
2021/12/09 10:45:18;;;;;;;18.85;8.55;;;3.80;99.90;;;;;;4996782;28;20121;-85
2021/12/09 10:47:58;;;;;;;19.02;8.50;;;3.80;99.90;;;;;;5000155;28;20051;-84
2021/12/09 10:53:29;;;;;;;15.00;8.82;;;3.80;99.90;;;;;;5004132;28;20052;-86
2021/12/09 10:55:54;;;;;;;17.92;9.10;;;3.80;99.90;;;;;;4996237;28;20310;-84
2021/12/09 10:58:23;;;;;;;17.17;9.40;;;3.90;99.90;;;;;;4973647;28;20552;-84
2021/12/09 11:00:55;;;;;;;16.08;8.98;;;4.00;99.90;;;;;;4998848;28;20266;-84
2021/12/09 11:03:26;;;;;;;17.38;9.43;;;4.00;99.90;;;;;;5000889;28;20044;-85
2021/12/09 11:06:03;;;;;;;17.10;9.55;;;4.00;99.90;;;;;;4999930;28;21035;-83
2021/12/09 11:09:07;;;;;;;19.17;9.63;;;4.10;99.90;;;;;;4998827;28;20060;-83
2021/12/09 11:11:42;;;;;;;16.75;9.25;;;4.30;99.90;;;;;;4913526;28;20311;-84
2021/12/09 11:14:11;;;;;;;17.58;8.88;;;4.50;99.90;;;;;;4929034;28;20093;-84
2021/12/09 11:16:43;;;;;;;19.02;9.10;;;4.40;99.90;;;;;;4946771;28;20052;-85
2021/12/09 11:19:30;;;;;;;15.02;9.13;;;4.40;99.90;;;;;;4993951;28;20151;-85
2021/12/09 11:22:02;;;;;;;19.27;10.02;;;4.30;99.90;;;;;;5013572;28;20888;-85
2021/12/09 11:24:32;;;;;;;19.10;9.85;;;4.40;99.90;;;;;;5001433;28;20062;-85
2021/12/09 11:27:01;;;;;;;18.88;10.30;;;4.40;99.90;;;;;;4995998;28;20041;-85
2021/12/09 11:29:45;;;;;;;18.80;10.00;;;4.50;99.90;;;;;;5002755;28;20044;-83
2021/12/09 11:32:37;;;;;;;15.80;9.48;;;4.40;99.90;;;;;;4998169;28;20106;-83
2021/12/09 11:35:30;;;;;;;19.02;9.70;;;4.50;99.90;;;;;;5000306;28;20051;-83
2021/12/09 11:40:35;;;;;;;17.20;9.15;;;4.60;99.90;;;;;;4997181;28;20052;-84
2021/12/09 11:43:02;;;;;;;18.45;8.73;;;4.70;99.90;;;;;;4976962;28;20779;-88
2021/12/09 11:45:36;;;;;;;17.60;8.98;;;4.60;99.90;;;;;;4976455;28;20052;-87
2021/12/09 11:48:04;;;;;;;17.52;9.23;;;4.60;99.90;;;;;;5003940;28;21133;-85
2021/12/09 11:50:35;;;;;;;18.38;9.75;;;4.60;99.90;;;;;;5004962;28;20056;-84
2021/12/09 11:53:04;;;;;;;16.77;9.43;;;4.50;99.90;;;;;;5005552;28;20052;-84
2021/12/09 11:55:39;;;;;;;17.80;9.80;;;4.40;99.90;;;;;;5004458;28;20540;-83
2021/12/09 11:58:18;;;;;;;18.48;10.43;;;4.50;99.90;;;;;;5001321;28;20438;-84
2021/12/09 12:12:41;;;;;;;20.17;10.18;;;4.20;99.90;;;;;;5003398;28;20044;-82
2021/12/09 12:32:43;;;;;;;20.02;10.88;;;4.50;99.90;;;;;;5000671;28;20063;-84
2021/12/09 12:40:50;;;;;;;23.27;11.80;;;4.50;99.90;;;;;;5003758;28;20051;-85
2021/12/09 12:43:39;;;;;;;20.63;12.60;;;4.50;99.90;;;;;;4977830;28;20048;-83
2021/12/09 12:46:37;;;;;;;23.52;12.30;;;4.50;99.90;;;;;;4994394;28;20507;-83
2021/12/09 12:52:15;;;;;;;20.90;11.57;;;4.50;99.90;;;;;;4999037;28;20434;-83
2021/12/09 12:55:05;;;;;;;19.83;11.77;;;4.50;99.90;;;;;;4997242;28;21105;-84
2021/12/09 12:57:45;;;;;;;22.55;12.27;;;4.50;99.90;;;;;;4997643;28;20063;-83
2021/12/09 13:00:31;;;;;;;21.98;11.90;;;4.50;99.90;;;;;;4972751;28;20043;-83
2021/12/09 13:03:36;;;;;;;24.15;12.40;;;4.50;99.90;;;;;;4985617;28;20078;-82
2021/12/09 13:06:13;;;;;;;23.63;12.27;;;4.50;99.90;;;;;;5002573;28;20428;-84
2021/12/09 13:11:53;;;;;;;20.30;12.55;;;4.60;99.90;;;;;;4998580;28;20060;-83
2021/12/09 13:14:26;;;;;;;24.48;12.32;;;4.60;99.90;;;;;;4981190;28;20223;-84
2021/12/09 13:17:05;;;;;;;22.00;13.02;;;4.60;99.90;;;;;;4996175;28;20784;-84
2021/12/09 13:22:02;;;;;;;21.90;12.68;;;4.60;99.90;;;;;;4993035;28;20052;-84
2021/12/09 13:30:09;;;;;;;20.33;12.90;;;4.70;99.90;;;;;;4998391;28;20967;-84
2021/12/09 13:46:30;;;;;;;20.92;12.75;;;4.80;99.90;;;;;;5003095;28;20572;-83
2021/12/09 13:49:06;;;;;;;22.42;12.90;;;4.80;99.90;;;;;;4998366;28;20054;-83
2021/12/09 13:54:20;;;;;;;22.00;13.35;;;4.80;99.90;;;;;;4978347;28;20572;-83
2021/12/09 13:56:47;;;;;;;21.83;12.93;;;4.80;99.90;;;;;;5000405;28;20093;-85
2021/12/09 13:59:22;;;;;;;23.77;13.45;;;4.80;99.90;;;;;;4997469;28;20974;-84
2021/12/09 14:01:49;;;;;;;19.60;13.50;;;4.80;99.90;;;;;;4997863;28;20048;-83
2021/12/09 14:04:20;;;;;;;21.08;13.02;;;4.80;99.90;;;;;;4953524;28;20055;-83
2021/12/09 14:09:35;;;;;;;22.98;13.00;;;4.70;99.90;;;;;;4992744;28;20056;-83